CheckWX is a tool to help pilots better visualize weather data.  It is not intended as a substitute for an official pre-flight weather briefing.

12:10:21 UTC

28J METAR
Palatka Municipal - Lt Kay Larkin Field Airport
Palatka, Florida, USA
Current

35 mins ago

K28J 261135Z AUTO 33006KT 8SM CLR 24/23 A3011 RMK AO2
Observed
Jun-26 @ 11:35 UTC
Wind
  • 330° at 6 KTS
Visibility
8 SM
Flight Rules
VFR
Cloud Levels
  • Clear skies
Temperature
24°C / 75°F
Dewpoint
23°C / 73°F
Humidity
94%
Altimeter
30.11" Hg
Pressure
1019.62 hPa
Previous

55 mins ago

K28J 261115Z AUTO 00000KT 5SM BR CLR 23/23 A3011 RMK AO2
Observed
Jun-26 @ 11:15 UTC
Visibility
5 SM
Flight Rules
MVFR
Conditions
Mist
Cloud Levels
  • Clear skies
Temperature
23°C / 73°F
Dewpoint
23°C / 73°F
Humidity
100%
Altimeter
30.11" Hg
Pressure
1019.62 hPa
Previous

1 hour ago

K28J 261055Z AUTO 00000KT 5SM BR CLR 22/22 A3010 RMK AO2
Observed
Jun-26 @ 10:55 UTC
Visibility
5 SM
Flight Rules
MVFR
Conditions
Mist
Cloud Levels
  • Clear skies
Temperature
22°C / 72°F
Dewpoint
22°C / 72°F
Humidity
100%
Altimeter
30.1" Hg
Pressure
1019.32 hPa